Latest Weather Observations for Laverton

IDV60801

Issued at 3:31 am EST Monday 2 May 2016 (issued every 30 minutes, with the page automatically refreshed every 10 minutes)

About weather observations | Map of weather stations | Latest weather observations for VIC | Other Formats
Station Details ID: 087031 Name: LAVERTON RAAF Lat: -37.86 Lon: 144.76 Height: 20.1 m
Data from the previous 72 hours. | See also: Recent months at Laverton
Date/Time
EST
Temp
°C
App
Temp
°C
Dew
Point
Rel
Hum
%
Delta-T
°C
Wind Press
QNH
hPa
Press
MSL
hPa
Rain
since 9 am
mm
Dir
 
Spd
km/h
Gust
km/h
Spd
kts
Gust
kts
02/03:30am 8.6 5.7 4.6 76 1.8 N 9 11 5 6 1013.7 1013.7 0.0
02/03:00am 8.9 4.9 4.7 75 1.9 NNW 15 20 8 11 1013.9 1013.9 0.0
02/02:30am 8.9 4.5 4.7 75 1.9 NNW 17 22 9 12 1014.2 1014.2 0.0
02/02:00am 8.7 4.3 4.7 76 1.8 NNW 17 24 9 13 1014.4 1014.4 0.0
02/01:30am 8.7 4.3 4.7 76 1.8 NNW 17 20 9 11 1014.7 1014.7 0.0
02/01:00am 8.7 5.8 4.7 76 1.8 N 9 13 5 7 1015.1 1015.1 0.0
02/12:30am 8.4 5.5 4.8 78 1.6 NNW 9 13 5 7 1015.4 1015.4 0.0
02/12:00am 8.7 5.5 4.9 77 1.7 NNW 11 15 6 8 1015.6 1015.6 0.0
 
Date/Time
EST
Temp
°C
App
Temp
°C
Dew
Point
Rel
Hum
%
Delta-T
°C
Wind Press
QNH
hPa
Press
MSL
hPa
Rain
since 9 am
mm
Dir
 
Spd
km/h
Gust
km/h
Spd
kts
Gust
kts
01/11:30pm 8.6 5.4 5.0 78 1.6 NNW 11 15 6 8 1015.7 1015.7 0.0
01/11:00pm 9.2 5.6 5.2 76 1.8 NNW 13 17 7 9 1015.9 1015.9 0.0
01/10:30pm 9.5 6.0 5.3 75 1.9 NNW 13 17 7 9 1016.1 1016.1 0.0
01/10:00pm 9.5 5.6 5.5 76 1.8 NNW 15 20 8 11 1016.1 1016.1 0.0
01/09:30pm 9.7 7.0 5.5 75 1.9 N 9 11 5 6 1015.7 1015.7 0.0
01/09:00pm 9.8 6.0 5.6 75 1.9 NW 15 20 8 11 1015.6 1015.6 0.0
01/08:30pm 10.4 6.6 5.8 73 2.1 NNW 15 19 8 10 1015.6 1015.6 0.0
01/08:00pm 10.2 7.2 6.2 76 1.9 NNW 11 15 6 8 1015.3 1015.3 0.0
01/07:30pm 10.5 6.7 5.9 73 2.1 NW 15 19 8 10 1015.0 1015.0 0.0
01/07:00pm 11.0 7.6 6.0 71 2.3 NW 13 15 7 8 1014.7 1014.7 0.0
01/06:30pm 12.2 8.7 5.6 64 3.1 WNW 13 20 7 11 1014.5 1014.5 0.0
01/06:00pm 13.1 8.8 5.3 59 3.6 W 17 28 9 15 1013.8 1013.8 0.0
01/05:30pm 13.3 8.5 5.7 60 3.6 WNW 20 32 11 17 1013.2 1013.2 0.0
01/05:00pm 13.4 7.6 6.3 62 3.4 W 26 35 14 19 1012.7 1012.7 0.0
01/04:30pm 13.9 7.7 6.3 60 3.6 W 28 39 15 21 1012.6 1012.6 0.0
01/04:00pm 13.3 7.4 5.9 61 3.5 WSW 26 37 14 20 1012.1 1012.1 0.0
01/03:30pm 12.6 3.0 6.4 66 2.9 WSW 46 69 25 37 1012.0 1012.0 0.0
01/03:00pm 13.9 4.4 4.8 54 4.2 WSW 44 70 24 38 1011.2 1011.3 0.0
01/02:58pm 14.2 5.0 5.6 56 4.1 W 43 70 23 38 1011.1 1011.2 0.0
01/02:35pm 15.4 7.9 6.4 55 4.4 WNW 35 54 19 29 1010.5 1010.6 0.0
01/02:30pm 15.6 7.0 6.6 55 4.4 WNW 41 56 22 30 1010.4 1010.5 0.0
01/02:07pm 15.2 8.1 6.5 56 4.2 W 33 52 18 28 1010.2 1010.3 0.0
01/02:00pm 15.1 7.6 6.1 55 4.3 W 35 50 19 27 1010.0 1010.1 0.0
01/01:30pm 15.9 8.5 6.6 54 4.6 W 35 59 19 32 1009.6 1009.6 0.0
01/01:08pm 15.5 6.8 6.2 54 4.5 W 41 59 22 32 1009.5 1009.5 0.0
01/01:00pm 15.6 7.4 6.6 55 4.4 W 39 56 21 30 1009.3 1009.3 0.0
01/12:57pm 15.7 8.3 6.7 55 4.4 W 35 54 19 29 1009.3 1009.3 0.0
01/12:30pm 14.8 6.6 6.6 58 4.0 W 39 54 21 29 1009.3 1009.3 0.0
01/12:18pm 14.5 7.0 6.3 58 3.9 W 35 54 19 29 1009.3 1009.3 0.0
01/12:00pm 14.1 5.9 6.5 60 3.7 W 39 52 21 28 1009.1 1009.1 0.0
01/11:30am 13.6 6.0 9.1 74 2.3 W 39 59 21 32 1008.9 1008.9 0.0
01/11:11am 14.9 7.2 7.2 60 3.8 W 37 56 20 30 1008.4 1008.4 0.0
01/11:00am 15.0 6.9 7.1 59 3.9 WNW 39 54 21 29 1008.3 1008.3 0.0
01/10:30am 15.9 8.6 7.1 56 4.4 WNW 35 54 19 29 1007.9 1007.9 0.0
01/10:19am 15.7 8.5 7.7 59 4.0 WNW 35 54 19 29 1007.6 1007.6 0.0
01/10:00am 15.3 6.5 7.3 59 4.0 WNW 43 56 23 30 1007.2 1007.2 0.0
01/09:39am 15.1 6.4 7.6 61 3.7 WNW 43 63 23 34 1006.7 1006.7 0.0
01/09:30am 15.0 6.3 7.5 61 3.7 WNW 43 54 23 29 1006.6 1006.6 0.0
01/09:02am 14.6 7.5 8.1 65 3.3 WNW 35 54 19 29 1006.5 1006.5 0.0
01/09:00am 14.6 7.1 8.1 65 3.3 WNW 37 54 20 29 1006.4 1006.4 14.8
01/08:48am 14.3 6.8 8.0 66 3.1 WNW 37 61 20 33 1006.0 1006.0 14.8
01/08:30am 14.1 7.8 8.9 71 2.6 WNW 32 48 17 26 1006.0 1006.0 14.8
01/08:00am 14.9 8.0 8.8 67 3.1 NW 35 59 19 32 1005.5 1005.5 14.6
01/07:56am 15.1 9.1 8.8 66 3.2 NW 30 54 16 29 1005.4 1005.4 14.6
01/07:30am 14.7 9.1 8.9 68 3.0 NW 28 43 15 23 1004.5 1004.5 14.6
01/07:00am 14.5 10.1 9.1 70 2.8 NNW 22 32 12 17 1004.1 1004.1 14.6
01/06:30am 14.7 11.7 10.5 76 2.2 N 17 26 9 14 1003.6 1003.6 14.6
01/06:00am 14.9 12.0 10.9 77 2.1 N 17 28 9 15 1003.3 1003.3 14.6
01/05:30am 15.1 12.2 11.1 77 2.1 N 17 26 9 14 1003.1 1003.1 14.6
01/05:00am 14.7 13.5 12.7 88 1.1 N 11 17 6 9 1003.3 1003.3 14.6
01/04:30am 15.3 13.5 13.2 87 1.2 N 15 20 8 11 1002.2 1002.2 14.6
01/04:00am 15.6 11.6 13.1 85 1.4 NW 26 39 14 21 1002.5 1002.5 14.6
01/03:32am 15.6 12.4 14.3 92 0.7 NW 24 32 13 17 1003.5 1003.5 13.6
01/03:30am 15.5 12.3 14.2 92 0.7 NW 24 32 13 17 1003.4 1003.4 13.4
01/03:00am 16.7 14.4 15.6 93 0.6 NW 22 33 12 18 1003.9 1003.9 6.8
01/02:54am 18.1 16.5 16.4 90 1.0 N 20 35 11 19 1002.8 1002.8 1.4
01/02:30am 18.8 15.8 15.9 83 1.7 N 26 41 14 22 1002.1 1002.1 0.2
01/02:11am 19.7 16.2 15.4 76 2.5 N 28 46 15 25 1002.8 1002.8 0.0
01/02:00am 20.0 15.6 15.2 74 2.8 N 32 46 17 25 1002.9 1002.9 0.0
01/01:30am 19.8 15.2 15.2 75 2.7 N 33 54 18 29 1003.5 1003.5 0.0
01/01:05am 19.6 15.3 15.5 77 2.4 N 32 50 17 27 1004.4 1004.4 0.0
01/01:00am 19.6 15.1 15.5 77 2.4 N 33 48 18 26 1004.3 1004.3 0.0
01/12:30am 19.4 15.1 15.3 77 2.4 N 32 56 17 30 1004.9 1004.9 0.0
01/12:16am 19.5 16.0 15.4 77 2.4 N 28 46 15 25 1005.0 1005.0 0.0
01/12:00am 19.4 15.5 15.5 78 2.3 N 30 44 16 24 1005.4 1005.4 0.0
 
Date/Time
EST
Temp
°C
App
Temp
°C
Dew
Point
Rel
Hum
%
Delta-T
°C
Wind Press
QNH
hPa
Press
MSL
hPa
Rain
since 9 am
mm
Dir
 
Spd
km/h
Gust
km/h
Spd
kts
Gust
kts
30/11:30pm 19.4 16.3 15.5 78 2.3 NNE 26 37 14 20 1006.5 1006.5 0.0
30/11:00pm 19.7 16.2 15.6 77 2.4 N 28 41 15 22 1007.2 1007.2 0.0
30/10:30pm 20.0 15.5 15.4 75 2.7 N 33 48 18 26 1007.7 1007.7 0.0
30/10:20pm 20.2 15.7 15.4 74 2.8 N 33 54 18 29 1007.7 1007.7 0.0
30/10:00pm 20.0 16.5 15.4 75 2.7 N 28 43 15 23 1008.2 1008.2 0.0
30/09:30pm 19.7 17.2 15.1 75 2.7 NNE 22 33 12 18 1008.6 1008.6 0.0
30/09:00pm 19.4 17.3 15.1 76 2.5 NNE 20 28 11 15 1009.2 1009.2 0.0
30/08:30pm 19.6 17.6 15.0 75 2.7 N 19 30 10 16 1009.4 1009.4 0.0
30/08:00pm 19.2 17.7 15.3 78 2.3 NNE 17 22 9 12 1009.5 1009.5 0.0
30/07:30pm 18.9 18.4 15.0 78 2.3 NNE 11 15 6 8 1009.7 1009.7 0.0
30/07:00pm 19.4 18.5 14.9 75 2.6 NNE 13 22 7 12 1009.7 1009.7 0.0
30/06:30pm 20.1 18.0 14.7 71 3.2 N 19 30 10 16 1009.8 1009.8 0.0
30/06:00pm 20.7 18.4 14.6 68 3.6 N 20 32 11 17 1009.9 1009.9 0.0
30/05:30pm 21.2 18.8 14.4 65 4.0 N 20 35 11 19 1010.1 1010.1 0.0
30/05:00pm 21.9 19.5 14.5 63 4.4 N 20 28 11 15 1010.0 1010.0 0.0
30/04:30pm 22.3 19.7 13.9 59 4.9 N 20 32 11 17 1010.0 1010.0 0.0
30/04:00pm 23.2 19.5 13.9 56 5.4 N 26 41 14 22 1010.1 1010.1 0.0
30/03:30pm 23.2 20.6 13.7 55 5.5 N 20 35 11 19 1010.2 1010.2 0.0
30/03:00pm 23.0 20.1 14.0 57 5.3 N 22 35 12 19 1010.3 1010.3 0.0
30/02:30pm 23.8 20.5 13.9 54 5.8 N 24 37 13 20 1010.6 1010.6 0.0
30/02:00pm 23.0 20.1 14.0 57 5.3 N 22 32 12 17 1011.0 1011.0 0.0
30/01:30pm 22.6 19.0 14.2 59 4.9 N 26 39 14 21 1011.0 1011.0 0.0
30/01:00pm 22.9 19.3 15.2 62 4.6 N 28 43 15 23 1011.5 1011.5 0.0
30/12:30pm 22.7 18.8 14.5 60 4.8 N 28 46 15 25 1012.0 1011.9 0.0
30/12:07pm 22.2 18.7 15.5 66 4.0 N 28 46 15 25 1012.4 1012.3 0.0
30/12:00pm 22.0 17.1 15.4 66 3.9 N 35 46 19 25 1012.4 1012.3 0.0
30/11:30am 22.0 18.3 15.1 65 4.1 N 28 44 15 24 1013.1 1013.0 0.0
30/11:11am 21.6 18.0 15.2 67 3.8 NNE 28 46 15 25 1012.9 1012.8 0.0
30/11:00am 21.5 17.5 15.1 67 3.8 NNE 30 41 16 22 1013.4 1013.3 0.0
30/10:30am 20.9 18.3 15.0 69 3.5 N 22 32 12 17 1014.0 1013.9 0.0
30/10:00am 20.5 17.1 14.8 70 3.3 N 26 37 14 20 1014.1 1014.0 0.0
30/09:30am 20.1 17.2 15.1 73 2.9 N 24 35 13 19 1014.4 1014.3 0.0
30/09:00am 19.3 16.9 15.4 78 2.3 N 22 35 12 19 1014.6 1014.5 9.2
30/08:30am 18.6 17.0 15.1 80 2.0 N 17 24 9 13 1014.7 1014.6 9.2
30/08:00am 17.5 15.9 15.1 86 1.4 N 17 24 9 13 1014.4 1014.3 9.2
30/07:30am 16.8 15.2 15.0 89 1.0 N 17 24 9 13 1014.0 1013.9 9.2
30/07:00am 16.4 15.0 14.4 88 1.1 N 15 24 8 13 1013.4 1013.3 9.2
30/06:30am 15.9 14.7 13.9 88 1.1 N 13 20 7 11 1013.5 1013.4 9.2
30/06:00am 15.2 14.6 13.4 89 1.0 NNE 9 11 5 6 1013.6 1013.5 9.2
30/05:30am 15.2 14.5 13.2 88 1.1 NNE 9 11 5 6 1013.5 1013.4 9.2
30/05:00am 16.2 15.2 13.5 84 1.5 N 11 17 6 9 1013.3 1013.2 9.2
30/04:30am 16.1 14.7 13.4 84 1.5 N 13 19 7 10 1013.2 1013.1 9.2
30/04:00am 15.9 14.6 13.7 87 1.2 NNE 13 17 7 9 1012.9 1012.8 9.2
30/03:30am 15.0 14.2 13.9 93 0.6 NNE 11 13 6 7 1013.1 1013.0 9.2
30/03:00am 14.9 14.6 13.4 91 0.8 N 7 9 4 5 1013.5 1013.4 9.2
30/02:30am 15.7 15.2 13.7 88 1.1 NNE 9 13 5 7 1013.4 1013.3 9.2
30/02:00am 16.3 15.4 13.8 85 1.4 NNE 11 15 6 8 1013.6 1013.5 9.2
30/01:30am 15.3 14.9 14.2 93 0.6 NNE 9 13 5 7 1013.7 1013.6 9.2
30/01:00am 15.6 15.8 14.1 91 0.8 NNE 6 9 3 5 1013.7 1013.6 9.2
30/12:30am 16.1 15.7 14.1 88 1.1 N 9 11 5 6 1013.7 1013.6 9.2
30/12:00am 16.5 16.0 14.9 90 0.9 N 11 15 6 8 1013.6 1013.5 9.2
 
Date/Time
EST
Temp
°C
App
Temp
°C
Dew
Point
Rel
Hum
%
Delta-T
°C
Wind Press
QNH
hPa
Press
MSL
hPa
Rain
since 9 am
mm
Dir
 
Spd
km/h
Gust
km/h
Spd
kts
Gust
kts
29/11:30pm 16.5 15.9 14.7 89 1.0 NNE 11 15 6 8 1013.6 1013.5 9.2
29/11:00pm 16.7 15.8 14.9 89 1.0 N 13 17 7 9 1013.9 1013.8 9.2
29/10:30pm 16.7 15.9 15.1 90 0.9 NNE 13 20 7 11 1014.0 1013.9 9.2
29/10:00pm 17.0 15.3 14.8 87 1.3 NNE 17 24 9 13 1014.1 1014.0 9.2
29/09:30pm 17.5 15.8 14.6 83 1.7 N 17 26 9 14 1014.1 1014.0 9.2
29/09:00pm 17.0 15.6 14.6 86 1.4 N 15 19 8 10 1013.7 1013.6 9.2
29/08:30pm 16.6 15.7 14.8 89 1.0 NNE 13 17 7 9 1013.8 1013.7 9.2
29/08:00pm 16.4 15.9 14.8 90 0.9 NNE 11 15 6 8 1013.7 1013.6 9.2
29/07:30pm 16.7 16.3 14.2 85 1.4 NE 9 15 5 8 1013.6 1013.5 9.2
29/07:00pm 16.9 15.7 14.0 83 1.6 NNE 13 17 7 9 1013.5 1013.4 9.2
29/06:30pm 17.2 16.0 14.1 82 1.8 NNE 13 19 7 10 1013.3 1013.2 9.2
29/06:00pm 17.5 16.8 14.4 82 1.8 N 11 19 6 10 1013.0 1012.9 9.2
29/05:30pm 17.5 17.1 15.3 87 1.3 N 11 15 6 8 1012.8 1012.7 9.2
29/05:00pm 17.7 16.9 15.1 85 1.5 N 13 19 7 10 1012.8 1012.7 9.2
29/04:30pm 17.5 16.5 15.7 89 1.1 NNE 15 20 8 11 1012.6 1012.5 9.2
29/04:00pm 17.4 17.0 16.1 92 0.8 NNE 13 17 7 9 1012.9 1012.8 9.2
29/03:30pm 16.7 16.7 16.2 97 0.3 NE 11 20 6 11 1013.2 1013.1 9.2
29/03:00pm 16.4 14.9 16.2 99 0.1 NE 19 24 10 13 1013.0 1012.9 9.0
29/02:30pm 16.4 15.2 16.2 99 0.1 NNE 17 28 9 15 1013.7 1013.6 8.6
29/02:00pm 16.5 15.7 16.2 98 0.2 NNE 15 22 8 12 1013.8 1013.7 7.8
29/01:30pm 16.4 15.6 16.1 98 0.2 NNE 15 22 8 12 1013.7 1013.6 7.4
29/01:00pm 16.5 16.8 16.0 97 0.3 NE 9 11 5 6 1014.0 1013.9 6.6
29/12:55pm 16.4 16.6 15.8 96 0.4 NE 9 11 5 6 1014.0 1013.9 6.4
29/12:30pm 16.5 16.4 15.0 91 0.9 N 9 11 5 6 1014.3 1014.2 5.4
29/12:10pm 16.8 16.6 14.8 88 1.2 N 9 13 5 7 1014.7 1014.6 4.0
29/12:00pm 16.9 16.4 14.9 88 1.2 N 11 13 6 7 1014.9 1014.8 3.4
29/11:30am 17.4 16.9 14.9 85 1.4 N 11 13 6 7 1014.9 1014.8 2.6
29/11:00am 17.2 17.3 15.4 89 1.1 NNE 9 15 5 8 1015.1 1015.0 1.8
29/10:30am 17.8 16.7 14.3 80 2.0 N 13 19 7 10 1015.0 1014.9 1.2
29/10:00am 17.4 16.4 14.5 83 1.7 NNE 13 17 7 9 1014.7 1014.6 0.8
29/09:30am 19.2 15.4 13.6 70 3.2 N 26 35 14 19 1014.6 1014.5 0.2
29/09:00am 18.7 17.0 13.6 72 2.9 N 15 22 8 12 1014.9 1014.8 0.2
29/08:30am 18.5 16.2 12.9 70 3.1 N 17 32 9 17 1015.0 1014.9 0.2
29/08:10am 17.3 16.2 13.0 76 2.4 N 11 19 6 10 1015.3 1015.2 0.0
29/08:00am 17.5 14.6 12.8 74 2.6 NNW 20 41 11 22 1015.3 1015.2 0.0
29/07:59am 17.6 14.3 12.7 73 2.7 NNW 22 41 12 22 1015.4 1015.3 0.0
29/07:30am 20.6 16.6 10.4 52 5.5 N 22 32 12 17 1014.0 1013.9 0.0
29/07:00am 20.9 16.8 10.1 50 5.8 N 22 33 12 18 1013.4 1013.3 0.0
29/06:30am 20.2 16.9 9.7 51 5.6 NNE 17 24 9 13 1013.5 1013.4 0.0
29/06:00am 19.8 16.2 10.0 53 5.3 NNE 19 24 10 13 1013.8 1013.7 0.0
29/05:30am 19.6 16.0 10.0 54 5.1 NNE 19 24 10 13 1014.0 1013.9 0.0
29/05:00am 19.5 15.8 10.0 54 5.1 NNE 20 28 11 15 1014.3 1014.2 0.0
29/04:30am 20.3 16.5 9.8 51 5.6 NNE 20 30 11 16 1014.0 1013.9 0.0
29/04:00am 19.8 16.2 10.0 53 5.3 NNE 19 28 10 15 1014.2 1014.1 0.0

Other Formats:

Comma delimited format used in spreadsheet applications
http://www.bom.gov.au/fwo/IDV60801/IDV60801.94865.axf

JavaScript Object Notation format (JSON) in row-major order
http://www.bom.gov.au/fwo/IDV60801/IDV60801.94865.json